createdAt,value
2018-05-02T00:02:02.485Z,10.68
2018-05-02T00:04:30.850Z,10.65
2018-05-02T00:06:59.785Z,10.64
2018-05-02T00:09:28.203Z,10.64
2018-05-02T00:11:56.779Z,10.63
2018-05-02T00:14:25.159Z,10.60
2018-05-02T00:16:53.637Z,10.53
2018-05-02T00:19:22.028Z,10.45
2018-05-02T00:21:50.382Z,10.36
2018-05-02T00:24:18.742Z,10.24
2018-05-02T00:26:47.157Z,10.11
2018-05-02T00:29:15.509Z,10.01
2018-05-02T00:31:44.239Z,9.93
2018-05-02T00:34:12.588Z,9.85
2018-05-02T00:36:40.938Z,9.80
2018-05-02T00:39:09.336Z,9.73
2018-05-02T00:41:37.869Z,9.65
2018-05-02T00:44:06.243Z,9.61
2018-05-02T00:46:34.595Z,9.58
2018-05-02T00:49:14.001Z,9.52
2018-05-02T00:51:42.712Z,9.46
2018-05-02T00:54:11.136Z,9.40
2018-05-02T00:56:39.502Z,9.35
2018-05-02T00:59:07.898Z,9.32
2018-05-02T01:01:36.499Z,9.27
2018-05-02T01:04:05.024Z,9.25
2018-05-02T01:06:33.376Z,9.22
2018-05-02T01:09:01.743Z,9.21
2018-05-02T01:11:30.114Z,9.19
2018-05-02T01:13:58.588Z,9.20
2018-05-02T01:16:26.979Z,9.19
2018-05-02T01:18:55.937Z,9.18
2018-05-02T01:21:25.191Z,9.17
2018-05-02T01:23:53.549Z,9.17
2018-05-02T01:26:21.891Z,9.15
2018-05-02T01:28:50.255Z,9.13
2018-05-02T01:31:18.624Z,9.11
2018-05-02T01:33:47.270Z,9.09
2018-05-02T01:36:15.631Z,9.09
2018-05-02T01:38:44.124Z,9.09
2018-05-02T01:41:12.476Z,9.12
2018-05-02T01:43:40.815Z,9.11
2018-05-02T01:46:09.169Z,9.12
2018-05-02T01:48:37.528Z,9.08
2018-05-02T01:51:05.949Z,9.11
2018-05-02T01:53:34.317Z,9.15
2018-05-02T01:56:02.662Z,9.23
2018-05-02T01:58:31.007Z,9.23
2018-05-02T02:00:59.468Z,9.25
2018-05-02T02:03:27.850Z,9.28
2018-05-02T02:05:56.348Z,9.32
2018-05-02T02:08:25.353Z,9.37
2018-05-02T02:10:53.797Z,9.38
2018-05-02T02:13:22.219Z,9.39
2018-05-02T02:15:50.593Z,9.38
2018-05-02T02:18:19.038Z,9.35
2018-05-02T02:20:47.383Z,9.32
2018-05-02T02:23:15.751Z,9.28
2018-05-02T02:25:45.342Z,9.32
2018-05-02T02:28:14.097Z,9.38
2018-05-02T02:30:43.415Z,9.45
2018-05-02T02:33:12.564Z,9.52
2018-05-02T02:35:40.971Z,9.59
2018-05-02T02:38:09.311Z,9.60
2018-05-02T02:40:38.332Z,9.56
2018-05-02T02:43:07.321Z,9.52
2018-05-02T02:45:37.052Z,9.53
2018-05-02T02:48:06.257Z,9.56
2018-05-02T02:50:35.154Z,9.57
2018-05-02T02:53:04.326Z,9.56
2018-05-02T02:55:32.725Z,9.54
2018-05-02T02:58:02.287Z,9.55
2018-05-02T03:00:30.894Z,9.55
2018-05-02T03:02:59.532Z,9.55
2018-05-02T03:05:28.889Z,9.55
2018-05-02T03:07:57.989Z,9.55
2018-05-02T03:10:26.391Z,9.57
2018-05-02T03:12:55.547Z,9.53
2018-05-02T03:15:24.593Z,9.50
2018-05-02T03:17:53.500Z,9.45
2018-05-02T03:20:22.308Z,9.44
2018-05-02T03:22:51.294Z,9.44
2018-05-02T03:25:19.894Z,9.45
2018-05-02T03:27:48.749Z,9.44
2018-05-02T03:30:17.105Z,9.42
2018-05-02T03:32:46.389Z,9.41
2018-05-02T03:35:15.566Z,9.42
2018-05-02T03:37:44.449Z,9.43
2018-05-02T03:40:13.105Z,9.45
2018-05-02T03:42:42.509Z,9.49
2018-05-02T03:45:12.584Z,9.49
2018-05-02T03:47:41.418Z,9.53
2018-05-02T03:50:09.783Z,9.54
2018-05-02T03:52:38.432Z,9.53
2018-05-02T03:55:06.894Z,9.56
2018-05-02T03:57:35.916Z,9.58
2018-05-02T04:00:18.074Z,9.57
2018-05-02T04:02:58.458Z,9.60
2018-05-02T04:05:38.892Z,9.62
2018-05-02T04:08:07.227Z,9.69
2018-05-02T04:10:35.660Z,9.89
2018-05-02T04:13:04.775Z,10.12
2018-05-02T04:15:33.205Z,10.28
2018-05-02T04:18:01.549Z,10.38
2018-05-02T04:20:29.991Z,10.45
2018-05-02T04:22:58.409Z,10.46
2018-05-02T04:25:27.275Z,10.47
2018-05-02T04:27:55.868Z,10.42
2018-05-02T04:30:24.350Z,10.44
2018-05-02T04:32:52.714Z,10.49
2018-05-02T04:35:21.188Z,10.61
2018-05-02T04:37:49.946Z,10.68
2018-05-02T04:40:18.964Z,10.69
2018-05-02T04:42:47.305Z,10.67
2018-05-02T04:45:15.652Z,10.64
2018-05-02T04:47:44.284Z,10.63
2018-05-02T04:50:12.717Z,10.61
2018-05-02T04:52:41.471Z,10.61
2018-05-02T04:55:10.180Z,10.61
2018-05-02T04:57:38.863Z,10.63
2018-05-02T05:00:07.372Z,10.65
2018-05-02T05:02:35.742Z,10.67
2018-05-02T05:05:04.325Z,10.71
2018-05-02T05:07:32.677Z,10.74
2018-05-02T05:10:01.033Z,10.77
2018-05-02T05:12:29.892Z,10.80
2018-05-02T05:14:58.244Z,10.84
2018-05-02T05:17:26.850Z,10.88
2018-05-02T05:19:55.732Z,10.91
2018-05-02T05:22:24.359Z,10.93
2018-05-02T05:24:52.719Z,10.96
2018-05-02T05:27:21.343Z,11.01
2018-05-02T05:29:49.786Z,11.08
2018-05-02T05:32:19.000Z,11.17
2018-05-02T05:34:47.677Z,11.24
2018-05-02T05:37:16.049Z,11.30
2018-05-02T05:39:44.630Z,11.32
2018-05-02T05:42:13.335Z,11.27
2018-05-02T05:44:41.743Z,11.25
2018-05-02T05:47:10.110Z,11.25
2018-05-02T05:49:38.660Z,11.27
2018-05-02T05:52:07.597Z,11.31
2018-05-02T05:54:35.972Z,11.33
2018-05-02T05:57:05.243Z,11.40
2018-05-02T05:59:33.932Z,11.45
2018-05-02T06:02:02.609Z,11.45
2018-05-02T06:04:32.054Z,11.44
2018-05-02T06:07:01.567Z,11.43
2018-05-02T06:09:30.378Z,11.43
2018-05-02T06:11:59.613Z,11.38
2018-05-02T06:14:27.978Z,11.37
2018-05-02T06:16:56.432Z,11.37
2018-05-02T06:19:25.177Z,11.46
2018-05-02T06:21:53.891Z,11.55
2018-05-02T06:24:22.255Z,11.63
2018-05-02T06:26:50.623Z,11.69
2018-05-02T06:29:19.374Z,11.75
2018-05-02T06:31:48.125Z,11.83
2018-05-02T06:34:16.528Z,11.90
2018-05-02T06:36:44.892Z,11.89
2018-05-02T06:39:13.588Z,11.89
2018-05-02T06:41:42.159Z,11.88
2018-05-02T06:44:10.933Z,11.94
2018-05-02T06:46:39.717Z,12.02
2018-05-02T06:49:08.629Z,12.09
2018-05-02T06:51:37.000Z,12.11
2018-05-02T06:54:05.361Z,12.15
2018-05-02T06:56:33.720Z,12.15
2018-05-02T06:59:02.312Z,12.25
2018-05-02T07:01:30.776Z,12.28
2018-05-02T07:03:59.226Z,12.38
2018-05-02T07:06:28.355Z,12.48
2018-05-02T07:08:57.095Z,12.56
2018-05-02T07:11:25.613Z,12.69
2018-05-02T07:13:54.230Z,12.84
2018-05-02T07:16:23.588Z,12.97
2018-05-02T07:18:52.124Z,13.08
2018-05-02T07:21:21.424Z,13.19
2018-05-02T07:23:49.879Z,13.27
2018-05-02T07:26:18.677Z,13.34
2018-05-02T07:28:48.084Z,13.39
2018-05-02T07:31:17.193Z,13.51
2018-05-02T07:33:46.350Z,13.55
2018-05-02T07:36:15.107Z,13.58
2018-05-02T07:38:44.326Z,13.55
2018-05-02T07:41:12.921Z,13.54
2018-05-02T07:43:41.981Z,13.65
2018-05-02T07:46:10.449Z,13.71
2018-05-02T07:48:38.902Z,13.80
2018-05-02T07:51:08.151Z,13.93
2018-05-02T07:53:36.934Z,14.01
2018-05-02T07:56:05.323Z,14.03
2018-05-02T07:58:33.914Z,14.08
2018-05-02T08:01:02.586Z,14.18
2018-05-02T08:03:31.213Z,14.22
2018-05-02T08:06:00.455Z,14.16
2018-05-02T08:08:28.816Z,14.08
2018-05-02T08:10:58.068Z,14.03
2018-05-02T08:13:26.436Z,14.04
2018-05-02T08:15:55.208Z,14.10
2018-05-02T08:18:23.612Z,14.20
2018-05-02T08:20:52.037Z,14.31
2018-05-02T08:23:21.096Z,14.32
2018-05-02T08:25:49.467Z,14.31
2018-05-02T08:28:18.106Z,14.39
2018-05-02T08:30:47.143Z,14.53
2018-05-02T08:33:15.680Z,14.64
2018-05-02T08:35:44.038Z,14.67
2018-05-02T08:38:12.391Z,14.67
2018-05-02T08:40:41.287Z,14.74
2018-05-02T08:43:10.040Z,14.79
2018-05-02T08:45:38.623Z,14.86
2018-05-02T08:48:06.988Z,14.89
2018-05-02T08:50:35.353Z,14.92
2018-05-02T08:53:04.840Z,14.97
2018-05-02T08:55:33.339Z,14.95
2018-05-02T08:58:02.611Z,14.88
2018-05-02T09:00:32.251Z,14.83
2018-05-02T09:03:01.478Z,14.91
2018-05-02T09:05:29.925Z,15.01
2018-05-02T09:07:59.429Z,15.06
2018-05-02T09:10:29.381Z,15.06
2018-05-02T09:12:58.005Z,15.14
2018-05-02T09:15:26.480Z,15.17
2018-05-02T09:17:54.851Z,15.26
2018-05-02T09:20:23.384Z,15.37
2018-05-02T09:22:51.995Z,15.42
2018-05-02T09:25:21.184Z,15.46
2018-05-02T09:27:49.541Z,15.46
2018-05-02T09:30:18.286Z,15.52
2018-05-02T09:32:46.637Z,15.68
2018-05-02T09:35:15.073Z,15.79
2018-05-02T09:37:43.440Z,15.85
2018-05-02T09:40:11.808Z,15.89
2018-05-02T09:42:40.481Z,15.98
2018-05-02T09:45:08.978Z,16.05
2018-05-02T09:47:37.631Z,16.07
2018-05-02T09:50:06.101Z,16.18
2018-05-02T09:52:34.541Z,16.27
2018-05-02T09:55:03.464Z,16.32
2018-05-02T09:57:32.071Z,16.40
2018-05-02T10:00:00.774Z,16.43
2018-05-02T10:02:29.239Z,16.45
2018-05-02T10:04:58.558Z,16.47
2018-05-02T10:07:27.686Z,16.48
2018-05-02T10:09:56.648Z,16.48
2018-05-02T10:12:26.318Z,16.46
2018-05-02T10:14:54.662Z,16.43
2018-05-02T10:17:23.902Z,16.32
2018-05-02T10:19:52.964Z,16.35
2018-05-02T10:22:21.328Z,16.40
2018-05-02T10:24:49.728Z,16.40
2018-05-02T10:27:18.485Z,16.44
2018-05-02T10:29:46.997Z,16.36
2018-05-02T10:32:16.368Z,16.25
2018-05-02T10:34:44.750Z,16.18
2018-05-02T10:37:13.168Z,16.27
2018-05-02T10:39:41.560Z,16.41
2018-05-02T10:42:09.997Z,16.56
2018-05-02T10:44:38.417Z,16.68
2018-05-02T10:47:06.784Z,16.72
2018-05-02T10:49:35.140Z,16.74
2018-05-02T10:52:03.509Z,16.63
2018-05-02T10:54:31.870Z,16.65
2018-05-02T11:01:02.149Z,16.71
2018-05-02T11:03:30.606Z,16.82
2018-05-02T11:05:59.519Z,16.99
2018-05-02T11:08:28.571Z,16.93
2018-05-02T11:10:56.893Z,16.81
2018-05-02T11:13:25.310Z,16.68
2018-05-02T11:15:54.545Z,16.64
2018-05-02T11:18:23.657Z,16.87
2018-05-02T11:20:52.830Z,17.03
2018-05-02T11:23:21.427Z,17.16
2018-05-02T11:25:49.857Z,17.22
2018-05-02T11:28:18.233Z,17.37
2018-05-02T11:30:46.677Z,17.54
2018-05-02T11:33:15.072Z,17.54
2018-05-02T11:35:43.591Z,17.58
2018-05-02T11:38:13.031Z,17.71
2018-05-02T12:06:07.603Z,18.04
2018-05-02T12:08:37.053Z,18.35
2018-05-02T12:11:06.135Z,18.56
2018-05-02T12:13:34.562Z,18.82
2018-05-02T12:16:02.988Z,18.88
2018-05-02T12:18:31.365Z,18.98
2018-05-02T12:20:59.777Z,19.24
2018-05-02T12:23:28.120Z,19.29
2018-05-02T12:29:28.267Z,19.71
2018-05-02T12:31:56.627Z,19.70
2018-05-02T12:34:25.077Z,19.61
2018-05-02T12:36:53.523Z,19.36
2018-05-02T12:39:21.884Z,19.20
2018-05-02T12:41:50.338Z,19.35
2018-05-02T12:44:18.757Z,19.30
2018-05-02T12:46:47.297Z,19.35
2018-05-02T12:49:16.157Z,19.42
2018-05-02T12:51:44.605Z,19.56
2018-05-02T12:54:13.248Z,19.45
2018-05-02T12:56:41.809Z,19.18
2018-05-02T12:59:10.183Z,18.87
2018-05-02T13:01:39.440Z,18.33
2018-05-02T13:04:07.804Z,17.95
2018-05-02T13:06:36.175Z,18.01
2018-05-02T13:09:04.612Z,17.89
2018-05-02T13:11:33.197Z,17.50
2018-05-02T13:14:01.555Z,16.97
2018-05-02T13:16:30.088Z,16.62
2018-05-02T13:18:59.476Z,16.39
2018-05-02T13:21:27.905Z,16.52
2018-05-02T13:23:56.273Z,16.33
2018-05-02T13:26:25.293Z,16.08
2018-05-02T13:28:53.720Z,15.70
2018-05-02T13:31:22.323Z,15.38
2018-05-02T13:33:50.761Z,15.18
2018-05-02T13:36:19.131Z,14.87
2018-05-02T13:38:47.655Z,14.61
2018-05-02T13:41:16.094Z,14.48
2018-05-02T13:43:44.468Z,14.40
2018-05-02T13:46:12.824Z,14.27
2018-05-02T13:48:41.241Z,14.11
2018-05-02T13:51:10.533Z,14.00
2018-05-02T13:53:39.187Z,13.90
2018-05-02T13:56:08.563Z,13.82
2018-05-02T13:58:38.125Z,13.66
2018-05-02T14:01:06.507Z,13.64
2018-05-02T14:03:35.196Z,13.67
2018-05-02T14:06:03.616Z,13.59
2018-05-02T14:08:31.999Z,13.60
2018-05-02T14:11:02.132Z,13.53
2018-05-02T14:13:30.872Z,13.46
2018-05-02T14:15:59.471Z,13.40
2018-05-02T14:18:28.009Z,13.27
2018-05-02T14:20:56.368Z,13.14
2018-05-02T14:23:25.445Z,13.07
2018-05-02T14:25:55.198Z,13.00
2018-05-02T14:28:23.550Z,12.91
2018-05-02T14:30:51.929Z,12.81
2018-05-02T14:33:20.374Z,12.79
2018-05-02T14:35:48.870Z,12.70
2018-05-02T14:38:17.287Z,12.63
2018-05-02T14:40:46.540Z,12.61
2018-05-02T14:43:16.105Z,12.55
2018-05-02T14:45:44.551Z,12.48
2018-05-02T14:48:13.285Z,12.48
2018-05-02T14:50:42.410Z,12.45
2018-05-02T14:53:11.497Z,12.41
2018-05-02T14:55:40.912Z,12.45
2018-05-02T14:58:09.432Z,12.48
2018-05-02T15:00:37.862Z,12.41
2018-05-02T15:03:06.232Z,12.35
2018-05-02T15:05:35.024Z,12.32
2018-05-02T15:08:03.468Z,12.28
2018-05-02T15:10:32.838Z,12.26
2018-05-02T15:13:01.194Z,12.27
2018-05-02T15:15:30.756Z,12.26
2018-05-02T15:17:59.328Z,12.27
2018-05-02T15:20:27.727Z,12.17
2018-05-02T15:22:56.093Z,12.15
2018-05-02T15:25:24.879Z,12.20
2018-05-02T15:27:53.237Z,12.23
2018-05-02T15:30:21.601Z,12.26
2018-05-02T15:32:49.996Z,12.23
2018-05-02T15:35:18.547Z,12.22
2018-05-02T15:37:47.835Z,12.10
2018-05-02T15:40:17.328Z,12.03
2018-05-02T15:42:45.866Z,11.99
2018-05-02T15:45:14.842Z,11.97
2018-05-02T15:47:43.571Z,11.97
2018-05-02T15:50:12.294Z,12.01
2018-05-02T15:52:41.221Z,11.97
2018-05-02T15:55:10.161Z,11.92
2018-05-02T15:57:38.806Z,11.86
2018-05-02T16:00:07.208Z,11.87
2018-05-02T16:02:35.919Z,11.81
2018-05-02T16:17:37.073Z,10.95
2018-05-02T16:20:07.270Z,10.97
2018-05-02T16:22:36.160Z,11.03
2018-05-02T16:25:04.972Z,11.09
2018-05-02T16:27:34.590Z,11.13
2018-05-02T16:30:03.346Z,11.18
2018-05-02T16:32:32.391Z,11.20
2018-05-02T16:35:01.092Z,11.21
2018-05-02T16:37:29.564Z,11.27
2018-05-02T16:39:58.616Z,11.32
2018-05-02T16:42:27.008Z,11.27
2018-05-02T16:44:55.480Z,11.26
2018-05-02T16:47:25.016Z,11.20
2018-05-02T16:49:53.403Z,11.18
2018-05-02T16:52:22.145Z,11.16
2018-05-02T16:54:50.571Z,11.08
2018-05-02T16:57:19.365Z,11.11
2018-05-02T16:59:48.808Z,11.13
2018-05-02T17:02:18.148Z,11.09
2018-05-02T17:04:46.927Z,11.07
2018-05-02T17:07:15.322Z,11.06
2018-05-02T17:09:44.646Z,10.99
2018-05-02T17:12:13.017Z,11.01
2018-05-02T17:14:41.385Z,11.00
2018-05-02T17:17:09.744Z,10.96
2018-05-02T17:19:39.295Z,10.96
2018-05-02T17:22:08.345Z,10.93
2018-05-02T17:24:36.997Z,10.91
2018-05-02T17:27:05.359Z,10.91
2018-05-02T17:29:33.847Z,10.90
2018-05-02T17:32:02.511Z,10.88
2018-05-02T17:34:30.904Z,10.87
2018-05-02T17:36:59.423Z,10.89
2018-05-02T17:39:28.414Z,10.90
2018-05-02T17:41:57.052Z,10.93
2018-05-02T17:44:25.470Z,10.96
2018-05-02T17:46:54.247Z,11.01
2018-05-02T17:49:22.628Z,11.03
2018-05-02T17:51:51.340Z,11.05
2018-05-02T17:54:20.105Z,11.09
2018-05-02T17:56:48.620Z,11.12
2018-05-02T17:59:16.978Z,11.12
2018-05-02T18:01:45.353Z,11.10
2018-05-02T18:04:13.784Z,11.07
2018-05-02T18:06:42.312Z,11.04
2018-05-02T18:09:10.849Z,11.01
2018-05-02T18:11:39.440Z,10.98
2018-05-02T18:14:07.857Z,10.94
2018-05-02T18:16:36.402Z,10.86
2018-05-02T18:19:04.871Z,10.83
2018-05-02T18:21:34.025Z,10.83
2018-05-02T18:24:02.558Z,10.84
2018-05-02T18:26:30.978Z,10.84
2018-05-02T18:28:59.573Z,10.85
2018-05-02T18:31:28.055Z,10.84
2018-05-02T18:33:56.434Z,10.84
2018-05-02T18:36:25.702Z,10.84
2018-05-02T18:38:54.182Z,10.84
2018-05-02T18:41:22.551Z,10.85
2018-05-02T18:43:51.692Z,10.83
2018-05-02T18:46:20.061Z,10.83
2018-05-02T18:48:48.448Z,10.87
2018-05-02T18:51:17.256Z,10.90
2018-05-02T18:53:45.700Z,11.07
2018-05-02T18:56:14.081Z,11.09
2018-05-02T18:58:43.062Z,11.18
2018-05-02T19:01:11.426Z,11.17
2018-05-02T19:03:39.895Z,11.30
2018-05-02T19:06:08.276Z,11.26
2018-05-02T19:08:36.704Z,11.17
2018-05-02T19:11:05.326Z,11.10
2018-05-02T19:13:39.373Z,11.05
2018-05-02T19:16:07.767Z,11.01
2018-05-02T19:18:41.657Z,10.97
2018-05-02T19:21:10.168Z,10.96
2018-05-02T19:23:38.701Z,10.96
2018-05-02T19:26:12.765Z,10.96
2018-05-02T19:28:41.809Z,10.99
2018-05-02T19:31:16.660Z,11.04
2018-05-02T19:33:50.701Z,11.10
2018-05-02T19:36:19.170Z,11.14
2018-05-02T19:38:47.608Z,11.15
2018-05-02T19:41:22.657Z,11.20
2018-05-02T19:43:56.752Z,11.25
2018-05-02T19:46:25.273Z,11.26
2018-05-02T19:48:54.016Z,11.27
2018-05-02T19:51:28.047Z,11.28
2018-05-02T19:53:56.483Z,11.29
2018-05-02T19:56:25.646Z,11.29
2018-05-02T19:58:54.299Z,11.60
2018-05-02T20:35:03.514Z,24.21
2018-05-02T20:37:31.966Z,24.33
